Time;durP1;ratioP1;P1;durP2;ratioP2;P2;SDS_P1;SDS_P2;PMS_P1;PMS_P2;Temp;Humidity;BMP_temperature;BMP_pressure;BME280_temperature;BME280_humidity;BME280_pressure;Samples;Min_cycle;Max_cycle;Signal;HPM_P1;HPM_P2
2022/06/29 00:00:14;;;;;;;1.70;1.60;;;18.10;99.90;;;;;;494050;241;28818;-71
2022/06/29 00:02:15;;;;;;;1.80;1.70;;;18.00;99.90;;;;;;494048;241;28870;-70
2022/06/29 00:04:18;;;;;;;1.60;1.50;;;18.00;99.90;;;;;;494061;241;29306;-71
2022/06/29 00:06:17;;;;;;;1.93;1.83;;;18.00;99.90;;;;;;493916;237;29372;-72
2022/06/29 00:08:19;;;;;;;1.73;1.63;;;17.90;99.90;;;;;;494084;241;29415;-70
2022/06/29 00:10:20;;;;;;;1.90;1.80;;;18.00;99.90;;;;;;494070;241;29354;-70
2022/06/29 00:12:21;;;;;;;1.70;1.60;;;17.90;99.90;;;;;;494046;241;28785;-70
2022/06/29 00:14:22;;;;;;;1.90;1.80;;;18.00;99.90;;;;;;494012;241;28818;-70
2022/06/29 00:16:24;;;;;;;1.87;1.77;;;18.00;99.90;;;;;;494028;241;28817;-73
2022/06/29 00:18:25;;;;;;;1.80;1.70;;;18.00;99.90;;;;;;494045;241;28905;-70
2022/06/29 00:20:26;;;;;;;2.23;2.10;;;17.90;99.90;;;;;;494070;241;28929;-71
2022/06/29 00:22:27;;;;;;;2.13;2.03;;;17.90;99.90;;;;;;494068;241;28802;-70
2022/06/29 00:24:29;;;;;;;1.60;1.50;;;17.80;99.90;;;;;;494047;241;28887;-70
2022/06/29 00:26:30;;;;;;;1.93;1.83;;;17.80;99.90;;;;;;494032;241;28932;-73
2022/06/29 00:28:31;;;;;;;2.10;2.00;;;17.90;99.90;;;;;;494052;241;29306;-71
2022/06/29 00:30:32;;;;;;;2.07;1.90;;;18.00;99.90;;;;;;494050;238;29312;-72
2022/06/29 00:32:34;;;;;;;1.90;1.80;;;18.00;99.90;;;;;;494066;241;29407;-71
2022/06/29 00:34:35;;;;;;;1.90;1.80;;;18.10;99.90;;;;;;494063;237;29388;-71
2022/06/29 00:36:36;;;;;;;2.20;2.10;;;18.00;99.90;;;;;;493625;237;29161;-71
2022/06/29 00:38:37;;;;;;;1.83;1.73;;;18.10;99.90;;;;;;494072;241;28876;-70
2022/06/29 00:40:39;;;;;;;2.20;2.10;;;18.00;99.90;;;;;;494062;241;28909;-71
2022/06/29 00:42:40;;;;;;;2.10;2.00;;;18.00;99.90;;;;;;494055;241;28804;-71
2022/06/29 00:44:41;;;;;;;1.77;1.67;;;18.00;99.90;;;;;;494052;241;28905;-70
2022/06/29 00:46:42;;;;;;;2.30;2.10;;;18.00;99.90;;;;;;494047;241;29199;-73
2022/06/29 00:48:44;;;;;;;5.73;2.20;;;17.90;99.90;;;;;;493983;241;28799;-71
2022/06/29 00:50:46;;;;;;;2.10;2.00;;;17.90;99.90;;;;;;494088;241;28829;-71
2022/06/29 00:52:46;;;;;;;2.00;1.90;;;17.90;99.90;;;;;;494048;241;28780;-70
2022/06/29 00:54:48;;;;;;;2.00;1.90;;;17.90;99.90;;;;;;494064;241;29293;-71
2022/06/29 00:56:49;;;;;;;2.20;2.10;;;17.80;99.90;;;;;;494070;237;29389;-70
2022/06/29 00:58:50;;;;;;;2.00;1.90;;;17.80;99.90;;;;;;494046;241;29407;-70
2022/06/29 01:00:51;;;;;;;2.00;1.90;;;17.80;99.90;;;;;;493973;241;28823;-71
2022/06/29 01:02:52;;;;;;;2.10;2.00;;;17.80;99.90;;;;;;494076;241;28784;-70
2022/06/29 01:04:54;;;;;;;2.20;2.00;;;17.80;99.90;;;;;;493913;241;28849;-70
2022/06/29 01:06:55;;;;;;;2.00;1.90;;;17.80;99.90;;;;;;494048;241;28814;-70
2022/06/29 01:08:56;;;;;;;2.00;1.90;;;17.80;99.90;;;;;;494050;241;28850;-70
2022/06/29 01:10:57;;;;;;;2.10;2.00;;;17.80;99.90;;;;;;494055;241;28956;-72
2022/06/29 01:12:59;;;;;;;1.97;1.90;;;17.80;99.90;;;;;;494049;241;28957;-70
2022/06/29 01:15:00;;;;;;;2.10;2.00;;;17.70;99.90;;;;;;494024;241;28866;-70
2022/06/29 01:17:01;;;;;;;1.87;1.77;;;17.60;99.90;;;;;;494059;241;28879;-70
2022/06/29 01:19:02;;;;;;;2.40;2.30;;;17.60;99.90;;;;;;493930;241;29258;-71
2022/06/29 01:21:04;;;;;;;2.27;2.07;;;17.50;99.90;;;;;;494052;241;29306;-71
2022/06/29 01:23:05;;;;;;;2.40;2.30;;;17.60;99.90;;;;;;494057;241;29257;-70
2022/06/29 01:25:06;;;;;;;2.40;2.20;;;17.60;99.90;;;;;;493970;241;28910;-70
2022/06/29 01:27:07;;;;;;;2.20;2.10;;;17.70;99.90;;;;;;494077;241;28910;-70
2022/06/29 01:29:09;;;;;;;2.07;1.97;;;17.70;99.90;;;;;;494102;241;28830;-70
2022/06/29 01:31:10;;;;;;;2.70;2.60;;;17.70;99.90;;;;;;494096;241;28914;-71
2022/06/29 01:33:11;;;;;;;2.27;2.17;;;17.70;99.90;;;;;;494051;241;28857;-70
2022/06/29 01:35:12;;;;;;;2.53;2.43;;;17.70;99.90;;;;;;494075;241;28809;-70
2022/06/29 01:37:14;;;;;;;2.67;2.57;;;17.70;99.90;;;;;;494073;241;29231;-73
2022/06/29 01:39:15;;;;;;;2.40;2.30;;;17.70;99.90;;;;;;494056;241;28798;-70
2022/06/29 01:41:16;;;;;;;2.33;2.23;;;17.60;99.90;;;;;;494083;241;28841;-71
2022/06/29 01:43:18;;;;;;;2.43;2.33;;;17.70;99.90;;;;;;494073;241;29352;-70
2022/06/29 01:45:19;;;;;;;2.20;2.10;;;17.70;99.90;;;;;;494079;241;29457;-71
2022/06/29 01:47:20;;;;;;;3.90;2.33;;;17.70;99.90;;;;;;494069;241;29385;-73
2022/06/29 01:49:22;;;;;;;4.10;2.13;;;17.70;99.90;;;;;;494063;241;29294;-71
2022/06/29 01:51:23;;;;;;;2.20;2.10;;;17.70;99.90;;;;;;494062;241;28847;-71
2022/06/29 01:53:24;;;;;;;2.17;2.07;;;17.70;99.90;;;;;;494083;241;28784;-70
2022/06/29 01:55:25;;;;;;;2.30;2.20;;;17.60;99.90;;;;;;494058;239;28826;-70
2022/06/29 01:57:26;;;;;;;2.00;1.90;;;17.60;99.90;;;;;;494092;241;28831;-73
2022/06/29 01:59:28;;;;;;;2.53;2.33;;;17.40;99.90;;;;;;494016;241;28882;-70
2022/06/29 02:01:29;;;;;;;2.53;2.30;;;17.40;99.90;;;;;;493520;237;28846;-70
2022/06/29 02:03:30;;;;;;;2.30;2.20;;;17.20;99.90;;;;;;494075;241;28792;-71
2022/06/29 02:05:31;;;;;;;2.40;2.30;;;17.30;99.90;;;;;;494041;241;28818;-71
2022/06/29 02:07:33;;;;;;;2.50;2.40;;;17.20;99.90;;;;;;494021;241;29441;-74
2022/06/29 02:09:34;;;;;;;4.53;2.30;;;17.30;99.90;;;;;;494067;241;29253;-70
2022/06/29 02:11:35;;;;;;;2.50;2.40;;;17.30;99.90;;;;;;494080;241;29467;-71
2022/06/29 02:13:36;;;;;;;3.63;2.40;;;17.30;99.90;;;;;;494106;241;29362;-70
2022/06/29 02:15:38;;;;;;;2.40;2.30;;;17.30;99.90;;;;;;493882;241;28828;-70
2022/06/29 02:17:39;;;;;;;2.10;2.00;;;17.30;99.90;;;;;;494065;241;28920;-71
2022/06/29 02:19:40;;;;;;;2.30;2.20;;;17.30;99.90;;;;;;494065;241;28791;-70
2022/06/29 02:21:41;;;;;;;2.67;2.50;;;17.30;99.90;;;;;;493974;241;28938;-71
2022/06/29 02:23:43;;;;;;;2.30;2.10;;;17.40;99.90;;;;;;494010;241;28954;-70
2022/06/29 02:25:44;;;;;;;2.00;1.90;;;17.30;99.90;;;;;;494060;241;28844;-70
2022/06/29 02:27:45;;;;;;;2.10;2.00;;;17.40;99.90;;;;;;494035;241;28834;-70
2022/06/29 02:29:46;;;;;;;2.20;2.10;;;17.40;99.90;;;;;;494093;241;28796;-70
2022/06/29 02:36:27;;;;;;;2.10;2.00;;;17.30;99.90;;;;;;494040;241;29269;-70
2022/06/29 02:38:28;;;;;;;2.10;2.00;;;17.30;99.90;;;;;;494077;241;29380;-71
2022/06/29 02:40:29;;;;;;;2.40;2.20;;;17.30;99.90;;;;;;494024;241;29347;-70
2022/06/29 02:42:30;;;;;;;2.20;2.10;;;17.30;99.90;;;;;;494068;241;28830;-70
2022/06/29 02:44:32;;;;;;;2.20;2.10;;;17.30;99.90;;;;;;494059;241;28923;-73
2022/06/29 02:46:33;;;;;;;1.93;1.83;;;17.30;99.90;;;;;;494077;241;28806;-70
2022/06/29 02:48:34;;;;;;;1.83;1.73;;;17.30;99.90;;;;;;494063;241;28846;-73
2022/06/29 02:50:35;;;;;;;2.17;2.07;;;17.30;99.90;;;;;;494088;241;28795;-71
2022/06/29 02:52:37;;;;;;;1.93;1.83;;;17.20;99.90;;;;;;494069;241;28809;-71
2022/06/29 02:54:38;;;;;;;2.20;2.10;;;17.20;99.90;;;;;;494058;241;28816;-70
2022/06/29 02:56:39;;;;;;;2.00;1.90;;;17.20;99.90;;;;;;494058;241;28858;-71
2022/06/29 02:58:40;;;;;;;2.60;2.40;;;17.20;99.90;;;;;;494066;241;28932;-72
2022/06/29 03:00:42;;;;;;;2.20;2.07;;;17.20;99.90;;;;;;494026;241;29244;-71
2022/06/29 03:02:43;;;;;;;2.30;2.20;;;17.10;99.90;;;;;;494074;241;29317;-70
2022/06/29 03:04:44;;;;;;;2.00;1.90;;;17.10;99.90;;;;;;494073;241;30118;-71
2022/06/29 03:06:45;;;;;;;2.03;1.93;;;17.10;99.90;;;;;;494053;241;28791;-71
2022/06/29 03:08:47;;;;;;;2.03;1.93;;;17.10;99.90;;;;;;493953;241;28930;-72
2022/06/29 03:10:49;;;;;;;2.27;2.17;;;17.00;99.90;;;;;;494070;241;28886;-71
2022/06/29 03:12:49;;;;;;;2.20;2.10;;;16.90;99.90;;;;;;494009;241;28855;-71
2022/06/29 03:14:50;;;;;;;2.27;2.17;;;16.90;99.90;;;;;;494051;241;28827;-70
2022/06/29 03:16:52;;;;;;;2.30;2.20;;;16.90;99.90;;;;;;494071;241;28875;-71
2022/06/29 03:18:53;;;;;;;2.50;2.30;;;16.80;99.90;;;;;;494054;241;28943;-72
2022/06/29 03:20:54;;;;;;;2.50;2.40;;;16.80;99.90;;;;;;493868;241;28884;-71
2022/06/29 03:22:55;;;;;;;2.10;2.00;;;16.70;99.90;;;;;;494055;241;28818;-71
2022/06/29 03:24:57;;;;;;;2.10;2.00;;;16.60;99.90;;;;;;494064;241;30035;-71
2022/06/29 03:26:58;;;;;;;2.80;1.97;;;16.60;99.90;;;;;;494049;241;29253;-71
2022/06/29 03:28:59;;;;;;;2.23;2.13;;;16.60;99.90;;;;;;494058;241;29299;-73
2022/06/29 03:31:00;;;;;;;2.27;2.17;;;16.60;99.90;;;;;;494098;241;28776;-71
2022/06/29 03:33:02;;;;;;;2.13;2.00;;;16.60;99.90;;;;;;494094;241;28811;-71
2022/06/29 03:35:03;;;;;;;2.27;2.17;;;16.60;99.90;;;;;;494093;241;28896;-72
2022/06/29 03:37:04;;;;;;;2.20;2.10;;;16.60;99.90;;;;;;494036;241;28843;-72
2022/06/29 03:39:05;;;;;;;2.27;2.10;;;16.50;99.90;;;;;;494068;241;28833;-71
2022/06/29 03:41:07;;;;;;;1.93;1.83;;;16.50;99.90;;;;;;494058;241;28957;-71
2022/06/29 03:43:08;;;;;;;2.00;1.90;;;16.50;99.90;;;;;;494057;241;28817;-70
2022/06/29 03:45:09;;;;;;;2.13;2.03;;;16.50;99.90;;;;;;494040;241;28953;-71
2022/06/29 03:47:10;;;;;;;1.70;1.70;;;16.50;99.90;;;;;;494046;241;28834;-71
2022/06/29 03:49:12;;;;;;;2.00;1.90;;;16.40;99.90;;;;;;494054;241;29327;-74
2022/06/29 03:51:13;;;;;;;2.30;2.10;;;16.40;99.90;;;;;;494066;241;29367;-71
2022/06/29 03:53:14;;;;;;;2.27;2.07;;;16.30;99.90;;;;;;493988;241;29301;-71
2022/06/29 03:55:15;;;;;;;2.10;2.00;;;16.40;99.90;;;;;;493992;241;29259;-71
2022/06/29 03:57:17;;;;;;;2.00;1.90;;;16.40;99.90;;;;;;493987;241;28823;-71
2022/06/29 03:59:18;;;;;;;2.03;1.93;;;16.40;99.90;;;;;;494037;241;28845;-74
2022/06/29 04:01:19;;;;;;;1.77;1.67;;;16.40;99.90;;;;;;494027;241;28914;-71
2022/06/29 04:03:20;;;;;;;2.60;1.90;;;16.40;99.90;;;;;;494024;241;28823;-71
2022/06/29 04:05:22;;;;;;;2.00;1.90;;;16.50;99.90;;;;;;494017;241;28783;-70
2022/06/29 04:07:23;;;;;;;1.90;1.80;;;16.50;99.90;;;;;;494009;241;28840;-71
2022/06/29 04:09:24;;;;;;;2.70;2.10;;;16.50;99.90;;;;;;494068;241;29182;-74
2022/06/29 04:13:45;;;;;;;1.80;1.80;;;16.50;99.90;;;;;;494071;241;28828;-71
2022/06/29 04:15:46;;;;;;;1.90;1.80;;;16.50;99.90;;;;;;494058;241;28830;-74
2022/06/29 04:17:48;;;;;;;2.13;2.03;;;16.50;99.90;;;;;;494070;241;28869;-71
2022/06/29 04:19:51;;;;;;;1.90;1.80;;;16.50;99.90;;;;;;494061;241;28822;-71
2022/06/29 04:21:50;;;;;;;1.77;1.70;;;16.50;99.90;;;;;;493910;241;29302;-72
2022/06/29 04:23:51;;;;;;;1.80;1.70;;;16.50;99.90;;;;;;494047;241;29355;-71
2022/06/29 04:25:53;;;;;;;2.73;2.00;;;16.40;99.90;;;;;;494035;241;29454;-73
2022/06/29 04:27:54;;;;;;;1.83;1.73;;;16.40;99.90;;;;;;494072;240;29353;-71
2022/06/29 04:29:55;;;;;;;2.10;1.90;;;16.40;99.90;;;;;;494063;241;28813;-71
2022/06/29 04:31:56;;;;;;;1.90;1.80;;;16.50;99.90;;;;;;494054;241;28883;-71
2022/06/29 04:33:58;;;;;;;1.77;1.67;;;16.50;99.90;;;;;;494033;241;28831;-71
2022/06/29 04:35:59;;;;;;;1.77;1.77;;;16.50;99.90;;;;;;494056;241;28932;-74
2022/06/29 04:38:00;;;;;;;2.27;2.17;;;16.50;99.90;;;;;;494052;241;28906;-71
2022/06/29 04:40:03;;;;;;;2.10;2.00;;;16.50;99.90;;;;;;494035;241;28922;-71
2022/06/29 04:42:03;;;;;;;1.93;1.83;;;16.50;99.90;;;;;;493839;241;28875;-70
2022/06/29 04:44:04;;;;;;;2.00;1.90;;;16.50;99.90;;;;;;493982;241;28898;-71
2022/06/29 04:46:21;;;;;;;1.83;1.80;;;16.50;99.90;;;;;;494036;241;29336;-73
2022/06/29 04:48:22;;;;;;;1.80;1.70;;;16.50;99.90;;;;;;494067;241;29309;-71
2022/06/29 04:50:23;;;;;;;2.00;1.90;;;16.50;99.90;;;;;;494049;241;29378;-71
2022/06/29 04:52:27;;;;;;;2.30;2.10;;;16.50;99.90;;;;;;494051;241;29390;-70
2022/06/29 04:54:28;;;;;;;2.30;2.20;;;16.40;99.90;;;;;;494059;241;29353;-72
2022/06/29 04:56:29;;;;;;;1.90;1.80;;;16.50;99.90;;;;;;494087;241;29707;-73
2022/06/29 04:58:31;;;;;;;2.00;1.80;;;16.40;99.90;;;;;;494104;241;29242;-71
2022/06/29 05:00:32;;;;;;;1.80;1.80;;;16.40;99.90;;;;;;494064;241;28830;-74
2022/06/29 05:02:33;;;;;;;2.00;1.90;;;16.40;99.90;;;;;;494063;241;28791;-71
2022/06/29 05:04:35;;;;;;;2.00;1.90;;;16.40;99.90;;;;;;494075;241;28830;-72
2022/06/29 05:06:36;;;;;;;1.70;1.60;;;16.30;99.90;;;;;;494074;241;28853;-73
2022/06/29 05:08:37;;;;;;;2.00;1.90;;;16.30;99.90;;;;;;494047;241;28780;-71
2022/06/29 05:10:38;;;;;;;1.97;1.87;;;16.40;99.90;;;;;;494046;241;28895;-71
2022/06/29 05:12:40;;;;;;;2.00;1.80;;;16.40;99.90;;;;;;494046;241;29187;-71
2022/06/29 05:14:41;;;;;;;1.80;1.70;;;16.20;99.90;;;;;;494046;241;28943;-71
2022/06/29 05:16:42;;;;;;;1.90;1.80;;;16.20;99.90;;;;;;493893;241;28868;-72
2022/06/29 05:18:43;;;;;;;1.90;1.80;;;16.30;99.90;;;;;;493347;241;29333;-71
2022/06/29 05:20:45;;;;;;;2.10;2.00;;;16.30;99.90;;;;;;493798;241;29403;-71
2022/06/29 05:22:46;;;;;;;1.90;1.80;;;16.30;99.90;;;;;;494028;241;29261;-72
2022/06/29 05:24:47;;;;;;;3.23;1.93;;;16.30;99.90;;;;;;494042;241;28820;-71
2022/06/29 05:26:48;;;;;;;2.10;2.00;;;16.30;99.90;;;;;;494057;241;28903;-73
2022/06/29 05:28:50;;;;;;;2.40;2.30;;;16.40;99.90;;;;;;494036;241;28836;-71
2022/06/29 05:30:52;;;;;;;3.30;3.10;;;16.40;99.90;;;;;;494045;241;28848;-72
2022/06/29 05:32:52;;;;;;;2.20;2.10;;;16.50;99.90;;;;;;494037;241;28908;-71
2022/06/29 05:34:53;;;;;;;2.30;2.20;;;16.50;99.90;;;;;;494014;239;28922;-71
2022/06/29 05:36:55;;;;;;;2.43;2.23;;;16.60;99.90;;;;;;494061;241;28837;-72
2022/06/29 05:38:56;;;;;;;2.60;2.50;;;16.70;99.90;;;;;;494062;241;28795;-71
2022/06/29 05:40:57;;;;;;;2.37;2.17;;;16.70;99.90;;;;;;494055;241;28867;-71
2022/06/29 05:42:58;;;;;;;2.30;2.20;;;16.70;99.90;;;;;;494045;241;29268;-72
2022/06/29 05:45:00;;;;;;;2.10;2.00;;;16.80;99.90;;;;;;494025;238;29760;-71
2022/06/29 05:47:01;;;;;;;2.30;2.20;;;16.90;99.90;;;;;;494040;241;29303;-74
2022/06/29 05:49:02;;;;;;;2.37;2.17;;;17.00;99.90;;;;;;494044;241;28811;-71
2022/06/29 05:51:03;;;;;;;2.00;1.90;;;17.00;99.90;;;;;;494019;241;28905;-71
2022/06/29 05:53:05;;;;;;;2.47;2.27;;;17.00;99.90;;;;;;494047;241;28811;-71
2022/06/29 05:55:06;;;;;;;2.33;2.23;;;17.10;99.90;;;;;;494050;241;28950;-71
2022/06/29 05:57:07;;;;;;;2.27;2.17;;;17.20;99.90;;;;;;494064;241;29185;-72
2022/06/29 05:59:08;;;;;;;2.30;2.20;;;17.30;99.90;;;;;;494049;241;28787;-71
2022/06/29 06:01:10;;;;;;;2.30;2.20;;;17.40;99.90;;;;;;494068;241;29192;-72
2022/06/29 06:03:11;;;;;;;2.40;2.20;;;17.40;99.90;;;;;;494041;241;28825;-71
2022/06/29 06:05:12;;;;;;;2.00;1.90;;;17.50;99.90;;;;;;494025;241;28826;-71
2022/06/29 06:07:13;;;;;;;2.43;2.33;;;17.60;99.90;;;;;;494042;241;29265;-74
2022/06/29 06:09:15;;;;;;;2.30;2.20;;;17.70;99.90;;;;;;494049;241;29264;-71
2022/06/29 06:11:16;;;;;;;2.23;2.13;;;17.80;99.90;;;;;;494053;241;29302;-71
2022/06/29 06:13:17;;;;;;;2.47;2.37;;;17.90;99.90;;;;;;494071;241;29292;-71
2022/06/29 06:15:18;;;;;;;2.20;2.10;;;18.00;99.90;;;;;;494092;241;28814;-71
2022/06/29 06:17:20;;;;;;;2.60;2.50;;;18.10;99.90;;;;;;494110;241;28899;-73
2022/06/29 06:19:21;;;;;;;2.50;2.40;;;18.20;99.90;;;;;;494080;241;28906;-71
2022/06/29 06:21:22;;;;;;;2.47;2.37;;;18.30;99.90;;;;;;494087;241;28846;-72
2022/06/29 06:23:23;;;;;;;2.60;2.50;;;18.40;99.90;;;;;;494102;241;28790;-71
2022/06/29 06:25:25;;;;;;;2.50;2.40;;;18.60;99.90;;;;;;494090;241;28831;-71
2022/06/29 06:27:26;;;;;;;2.57;2.47;;;18.70;99.90;;;;;;494067;241;29226;-74
2022/06/29 06:29:27;;;;;;;2.33;2.23;;;18.70;99.90;;;;;;494090;241;28853;-71
2022/06/29 06:31:28;;;;;;;2.60;2.50;;;18.80;99.90;;;;;;494068;241;29365;-73
2022/06/29 06:33:30;;;;;;;2.40;2.30;;;18.90;99.90;;;;;;494076;241;29765;-71
2022/06/29 06:35:32;;;;;;;2.53;2.43;;;18.90;99.90;;;;;;494068;241;29321;-71
2022/06/29 06:37:32;;;;;;;2.57;2.47;;;19.00;99.90;;;;;;494051;237;29398;-74
2022/06/29 06:39:33;;;;;;;2.10;2.00;;;19.10;99.90;;;;;;494087;241;28887;-71
2022/06/29 06:41:35;;;;;;;2.53;2.43;;;19.20;99.90;;;;;;494073;241;28834;-72
2022/06/29 06:43:36;;;;;;;2.37;2.27;;;19.30;99.90;;;;;;494074;241;28788;-71
2022/06/29 06:45:37;;;;;;;2.40;2.30;;;19.40;99.90;;;;;;494048;241;28846;-72
2022/06/29 06:47:38;;;;;;;2.10;2.00;;;19.50;99.90;;;;;;493972;241;28804;-71
2022/06/29 06:49:40;;;;;;;2.50;2.40;;;19.70;99.90;;;;;;493957;241;28866;-72
2022/06/29 06:51:41;;;;;;;2.50;2.40;;;19.80;99.90;;;;;;494031;241;28836;-72
2022/06/29 06:53:42;;;;;;;2.17;2.07;;;19.90;99.90;;;;;;494062;241;28775;-71
2022/06/29 06:55:43;;;;;;;2.43;2.33;;;20.10;99.90;;;;;;494016;241;28914;-72
2022/06/29 06:57:45;;;;;;;2.77;2.57;;;20.20;99.90;;;;;;494061;241;30072;-71
2022/06/29 06:59:46;;;;;;;2.63;2.43;;;20.30;99.90;;;;;;494071;241;29245;-72
2022/06/29 07:01:47;;;;;;;3.50;2.20;;;20.40;99.90;;;;;;494052;241;29322;-73
2022/06/29 07:03:49;;;;;;;2.40;2.30;;;20.40;99.90;;;;;;494057;241;28785;-71
2022/06/29 07:05:50;;;;;;;2.57;2.37;;;20.40;99.90;;;;;;494071;241;29165;-72
2022/06/29 07:07:51;;;;;;;2.50;2.30;;;20.50;99.90;;;;;;494091;241;28795;-71
2022/06/29 07:09:52;;;;;;;2.83;2.73;;;20.60;99.90;;;;;;494060;241;28804;-71
2022/06/29 07:11:53;;;;;;;2.50;2.40;;;20.70;99.90;;;;;;494080;241;28896;-74
2022/06/29 07:13:55;;;;;;;2.50;2.30;;;20.80;99.90;;;;;;494073;241;28905;-71
2022/06/29 07:15:56;;;;;;;2.60;2.50;;;21.00;99.90;;;;;;494069;241;28920;-72
2022/06/29 07:17:57;;;;;;;2.50;2.40;;;21.10;99.90;;;;;;494046;241;28874;-72
2022/06/29 07:19:58;;;;;;;2.70;2.60;;;21.30;99.90;;;;;;494058;241;28818;-72
2022/06/29 07:22:00;;;;;;;2.80;2.70;;;21.50;99.90;;;;;;494084;241;29281;-74
2022/06/29 07:24:01;;;;;;;2.80;2.60;;;21.50;99.90;;;;;;494093;241;29345;-72
2022/06/29 07:26:02;;;;;;;2.47;2.27;;;21.60;99.90;;;;;;494067;241;29414;-72
2022/06/29 07:28:03;;;;;;;2.50;2.40;;;21.70;99.90;;;;;;494080;241;28793;-72
2022/06/29 07:30:05;;;;;;;2.40;2.20;;;21.70;99.90;;;;;;494073;241;28836;-72
2022/06/29 07:32:06;;;;;;;2.63;2.47;;;21.80;99.90;;;;;;494092;241;28851;-74
2022/06/29 07:34:07;;;;;;;2.50;2.30;;;21.80;99.90;;;;;;494078;241;28781;-71
2022/06/29 07:36:08;;;;;;;2.43;2.30;;;21.80;99.90;;;;;;494063;241;28827;-72
2022/06/29 07:38:10;;;;;;;2.60;2.40;;;21.80;99.90;;;;;;494087;241;29171;-72
2022/06/29 07:40:11;;;;;;;2.33;2.20;;;21.80;99.90;;;;;;494072;241;28838;-71
2022/06/29 07:42:12;;;;;;;2.53;2.33;;;21.90;99.90;;;;;;494062;241;28937;-74
2022/06/29 07:44:13;;;;;;;2.40;2.30;;;21.80;99.90;;;;;;494085;241;28891;-71
2022/06/29 07:46:15;;;;;;;3.17;2.60;;;21.90;99.90;;;;;;494048;241;29300;-72
2022/06/29 07:48:16;;;;;;;2.80;2.63;;;21.90;99.90;;;;;;494059;241;29256;-72
2022/06/29 07:50:17;;;;;;;2.70;2.50;;;21.80;99.90;;;;;;494061;241;29310;-72
2022/06/29 07:52:18;;;;;;;4.73;2.83;;;21.60;99.90;;;;;;494085;239;29472;-74
2022/06/29 07:54:20;;;;;;;2.93;2.73;;;21.50;99.90;;;;;;494040;241;29156;-71
2022/06/29 07:56:21;;;;;;;3.03;2.77;;;21.50;99.90;;;;;;494056;241;28851;-72
2022/06/29 07:58:22;;;;;;;2.60;2.50;;;21.50;99.90;;;;;;494056;241;28777;-71
2022/06/29 08:00:25;;;;;;;3.20;2.90;;;21.40;99.90;;;;;;494034;241;28883;-71
2022/06/29 08:02:25;;;;;;;2.40;2.27;;;21.50;99.90;;;;;;493971;241;28946;-74
2022/06/29 08:04:26;;;;;;;2.50;2.40;;;21.50;99.90;;;;;;494035;241;28796;-71
2022/06/29 08:06:27;;;;;;;2.80;2.60;;;21.60;99.90;;;;;;494055;241;28835;-72
2022/06/29 08:08:28;;;;;;;2.47;2.37;;;21.70;99.90;;;;;;493932;241;28872;-71
2022/06/29 08:10:31;;;;;;;2.60;2.40;;;21.60;99.90;;;;;;494054;241;29742;-71
2022/06/29 08:12:31;;;;;;;2.33;2.23;;;21.70;99.90;;;;;;494020;241;29276;-74
2022/06/29 08:14:32;;;;;;;2.40;2.30;;;21.70;99.90;;;;;;494068;241;29265;-71
2022/06/29 08:16:33;;;;;;;2.63;2.43;;;21.80;99.90;;;;;;494028;241;29300;-72
2022/06/29 08:18:35;;;;;;;2.30;2.20;;;21.90;99.90;;;;;;494057;241;28886;-71
2022/06/29 08:20:36;;;;;;;2.40;2.20;;;21.80;99.90;;;;;;493996;241;28819;-72
2022/06/29 08:22:37;;;;;;;2.60;2.40;;;21.90;99.90;;;;;;494058;241;28845;-73
2022/06/29 08:24:38;;;;;;;2.10;2.00;;;21.90;99.90;;;;;;494083;241;28805;-72
2022/06/29 08:26:40;;;;;;;2.40;2.30;;;22.00;99.90;;;;;;494037;241;28817;-72
2022/06/29 08:28:41;;;;;;;2.40;2.30;;;22.00;99.90;;;;;;494051;241;28811;-71
2022/06/29 08:30:42;;;;;;;2.50;2.30;;;22.10;99.90;;;;;;494037;241;28843;-72
2022/06/29 08:32:44;;;;;;;3.13;2.33;;;22.30;99.90;;;;;;494040;241;28858;-73
2022/06/29 08:34:45;;;;;;;2.47;2.33;;;22.40;99.90;;;;;;494031;241;28800;-71
2022/06/29 08:36:46;;;;;;;3.73;2.63;;;22.50;99.90;;;;;;494044;241;29295;-72
2022/06/29 08:38:47;;;;;;;2.87;2.67;;;22.60;99.90;;;;;;494097;241;29362;-71
2022/06/29 08:40:48;;;;;;;3.00;2.80;;;22.70;99.90;;;;;;494084;241;29315;-72
2022/06/29 08:42:50;;;;;;;2.37;2.27;;;22.80;99.90;;;;;;494017;241;28926;-73
2022/06/29 08:44:51;;;;;;;2.10;2.00;;;22.80;99.90;;;;;;494074;241;28806;-72
2022/06/29 08:46:52;;;;;;;2.60;2.40;;;22.80;99.90;;;;;;494081;241;28832;-72
2022/06/29 08:48:53;;;;;;;2.60;2.47;;;22.90;99.90;;;;;;494069;241;28810;-71
2022/06/29 08:50:55;;;;;;;2.97;2.77;;;22.90;99.90;;;;;;494056;239;28903;-72
2022/06/29 08:52:56;;;;;;;2.33;2.23;;;22.90;99.90;;;;;;494084;241;28840;-73
2022/06/29 08:54:57;;;;;;;2.60;2.40;;;23.00;99.90;;;;;;494080;241;28807;-71
2022/06/29 08:56:59;;;;;;;2.20;2.10;;;23.10;99.90;;;;;;494064;241;28837;-72
2022/06/29 08:59:01;;;;;;;2.20;2.10;;;23.20;99.90;;;;;;494065;241;29303;-72
2022/06/29 09:01:01;;;;;;;2.47;2.37;;;23.30;99.90;;;;;;493938;241;29280;-71
2022/06/29 09:03:02;;;;;;;2.57;2.37;;;23.30;99.90;;;;;;494057;241;29335;-73
2022/06/29 09:05:03;;;;;;;2.77;2.57;;;23.40;99.90;;;;;;494077;241;29361;-71
2022/06/29 09:07:05;;;;;;;2.23;2.10;;;23.50;99.90;;;;;;494068;241;28839;-72
2022/06/29 09:09:06;;;;;;;2.50;2.30;;;23.60;99.90;;;;;;494077;241;28797;-71
2022/06/29 09:11:07;;;;;;;2.60;2.50;;;23.70;99.90;;;;;;494060;241;28804;-72
2022/06/29 09:13:08;;;;;;;2.10;2.00;;;23.70;99.90;;;;;;493696;241;28826;-73
2022/06/29 09:15:10;;;;;;;3.20;2.20;;;23.80;99.90;;;;;;494039;241;29314;-71
2022/06/29 09:17:11;;;;;;;2.30;2.20;;;23.90;99.90;;;;;;494042;241;28842;-72
2022/06/29 09:19:12;;;;;;;2.67;2.50;;;23.90;99.90;;;;;;494028;241;28795;-72
2022/06/29 09:21:13;;;;;;;2.67;2.47;;;23.80;99.90;;;;;;494055;241;28797;-72
2022/06/29 09:23:15;;;;;;;2.17;2.00;;;23.60;99.90;;;;;;494059;241;28851;-74
2022/06/29 09:25:16;;;;;;;2.30;2.20;;;23.40;99.90;;;;;;494044;241;29392;-72
2022/06/29 09:27:17;;;;;;;2.20;2.10;;;23.40;99.90;;;;;;494052;241;29492;-73
2022/06/29 09:29:19;;;;;;;2.10;2.00;;;23.40;99.90;;;;;;490127;241;47544;-71
2022/06/29 09:31:20;;;;;;;2.80;2.60;;;23.60;99.90;;;;;;494038;241;27497;-72
2022/06/29 09:33:21;;;;;;;2.30;2.20;;;23.80;99.90;;;;;;494024;241;28920;-73
2022/06/29 09:35:22;;;;;;;2.30;2.20;;;23.90;99.90;;;;;;494059;241;28927;-71
2022/06/29 09:37:24;;;;;;;2.33;2.13;;;24.00;99.90;;;;;;494040;241;28822;-73
2022/06/29 09:39:25;;;;;;;2.17;2.07;;;24.10;99.90;;;;;;494048;241;28786;-72
2022/06/29 09:41:26;;;;;;;3.40;2.50;;;24.00;99.90;;;;;;494036;241;28827;-72
2022/06/29 09:43:27;;;;;;;3.10;2.30;;;23.90;99.90;;;;;;494020;241;28828;-73
2022/06/29 09:45:29;;;;;;;2.63;2.43;;;23.90;99.90;;;;;;494058;241;28895;-72
2022/06/29 09:47:30;;;;;;;2.50;2.40;;;24.00;99.90;;;;;;494040;241;29233;-72
2022/06/29 09:49:31;;;;;;;2.40;2.30;;;24.00;99.90;;;;;;494088;241;29246;-72
2022/06/29 09:51:32;;;;;;;2.33;2.23;;;23.90;99.90;;;;;;493318;241;29263;-72
2022/06/29 09:53:34;;;;;;;3.10;2.60;;;23.90;99.90;;;;;;493992;241;29301;-73
2022/06/29 09:55:35;;;;;;;2.70;2.50;;;24.00;99.90;;;;;;494081;241;28787;-71
2022/06/29 09:57:36;;;;;;;2.70;2.50;;;24.00;99.90;;;;;;494074;241;28828;-72
2022/06/29 10:04:16;;;;;;;2.60;2.47;;;24.10;99.90;;;;;;494117;241;29310;-71
2022/06/29 10:06:17;;;;;;;2.80;2.57;;;24.20;99.90;;;;;;494107;241;29246;-71
2022/06/29 10:08:19;;;;;;;2.00;1.90;;;24.40;99.90;;;;;;494084;241;28836;-71
2022/06/29 10:10:20;;;;;;;2.10;2.00;;;24.60;99.90;;;;;;494096;241;28830;-71
2022/06/29 10:14:22;;;;;;;2.80;2.60;;;24.60;99.90;;;;;;480114;241;28732;-72
2022/06/29 10:16:24;;;;;;;2.50;2.30;;;24.50;99.90;;;;;;494090;241;28787;-72
2022/06/29 10:18:25;;;;;;;2.70;2.53;;;24.50;99.90;;;;;;494060;241;28847;-72
2022/06/29 10:20:26;;;;;;;2.67;2.50;;;24.50;99.90;;;;;;494076;240;28827;-74
2022/06/29 10:22:29;;;;;;;2.27;2.07;;;24.70;99.90;;;;;;494086;241;28800;-71
2022/06/29 10:24:30;;;;;;;2.23;2.13;;;24.70;99.90;;;;;;493978;241;28832;-72
2022/06/29 10:26:35;;;;;;;3.87;2.27;;;24.90;99.90;;;;;;493964;241;29352;-71
2022/06/29 10:28:34;;;;;;;2.30;2.10;;;25.00;99.90;;;;;;493910;241;29237;-71
2022/06/29 10:30:35;;;;;;;2.07;1.87;;;25.00;99.90;;;;;;494069;241;29322;-71
2022/06/29 10:32:38;;;;;;;2.60;2.40;;;25.10;99.90;;;;;;494092;241;30058;-71
2022/06/29 10:34:38;;;;;;;2.27;2.07;;;25.10;99.90;;;;;;493853;241;28806;-71
2022/06/29 10:36:39;;;;;;;2.50;2.37;;;25.00;99.90;;;;;;494037;241;28828;-72
2022/06/29 10:38:40;;;;;;;2.20;1.97;;;24.90;99.90;;;;;;494072;241;28843;-72
2022/06/29 10:40:41;;;;;;;2.30;2.20;;;24.80;99.90;;;;;;494074;241;28935;-72
2022/06/29 10:45:02;;;;;;;2.33;2.20;;;25.00;99.90;;;;;;493993;241;29346;-71
2022/06/29 10:47:03;;;;;;;2.60;2.40;;;25.00;99.90;;;;;;493930;237;29350;-71